createdAt,value
2022-11-06T00:01:37.712Z,100826.41
2022-11-06T00:05:59.970Z,100829.31
2022-11-06T00:10:01.867Z,100828.63
2022-11-06T00:14:04.693Z,100844.78
2022-11-06T00:18:06.631Z,100849.09
2022-11-06T00:22:08.258Z,100856.59
2022-11-06T00:26:13.308Z,100855.09
2022-11-06T00:30:14.984Z,100846.97
2022-11-06T00:34:16.917Z,100862.19
2022-11-06T00:38:18.702Z,100856.97
2022-11-06T00:42:20.765Z,100855.53
2022-11-06T00:46:23.293Z,100858.72
2022-11-06T00:50:26.592Z,100859.78
2022-11-06T00:54:28.265Z,100863.53
2022-11-06T00:58:30.187Z,100871.94
2022-11-06T01:02:32.057Z,100863.81
2022-11-06T01:06:36.959Z,100878.69
2022-11-06T01:10:38.602Z,100879.47
2022-11-06T01:14:41.529Z,100888.34
2022-11-06T01:18:44.568Z,100893.53
2022-11-06T01:22:46.493Z,100897.78
2022-11-06T01:27:12.026Z,100898.78
2022-11-06T01:31:17.778Z,100906.84
2022-11-06T01:35:19.458Z,100902.81
2022-11-06T01:39:21.565Z,100896.56
2022-11-06T01:43:26.134Z,100893.25
2022-11-06T01:47:29.698Z,100898.13
2022-11-06T01:51:36.490Z,100899.88
2022-11-06T01:55:42.964Z,100895.00
2022-11-06T01:59:45.783Z,100906.47
2022-11-06T02:04:05.329Z,100919.47
2022-11-06T02:08:10.290Z,100908.03
2022-11-06T02:13:05.892Z,100924.19
2022-11-06T02:17:39.931Z,100909.53
2022-11-06T02:22:11.048Z,100910.25
2022-11-06T02:26:28.286Z,100907.00
2022-11-06T02:30:36.670Z,100909.13
2022-11-06T02:34:41.977Z,100913.50
2022-11-06T02:38:49.796Z,100919.56
2022-11-06T02:42:54.694Z,100911.69
2022-11-06T02:47:05.011Z,100913.13
2022-11-06T02:51:10.672Z,100923.56
2022-11-06T02:55:19.666Z,100935.59
2022-11-06T02:59:32.111Z,100952.44
2022-11-06T03:03:39.529Z,100953.50
2022-11-06T03:07:50.513Z,100959.19
2022-11-06T03:12:01.647Z,100954.28
2022-11-06T03:16:12.663Z,100956.41
2022-11-06T03:20:41.998Z,100956.81
2022-11-06T03:24:52.071Z,100957.88
2022-11-06T03:29:20.267Z,100970.97
2022-11-06T03:33:32.186Z,100965.63
2022-11-06T03:37:42.532Z,100975.22
2022-11-06T03:42:06.435Z,100983.31
2022-11-06T03:46:19.434Z,100980.84
2022-11-06T03:51:02.333Z,100971.53
2022-11-06T03:55:14.891Z,100968.47
2022-11-06T03:59:23.286Z,100972.22
2022-11-06T04:03:37.808Z,100973.31
2022-11-06T04:08:04.281Z,100965.78
2022-11-06T04:12:27.299Z,100963.81
2022-11-06T04:16:33.948Z,100973.25
2022-11-06T04:21:05.600Z,100975.88
2022-11-06T04:25:38.058Z,100967.72
2022-11-06T04:30:07.386Z,100968.81
2022-11-06T04:34:30.762Z,100965.84
2022-11-06T04:38:53.896Z,100961.78
2022-11-06T04:43:03.599Z,100955.47
2022-11-06T04:47:09.244Z,100964.31
2022-11-06T04:51:12.533Z,100965.53
2022-11-06T04:55:14.255Z,100960.06
2022-11-06T04:59:18.171Z,100963.03
2022-11-06T05:03:19.941Z,100956.31
2022-11-06T05:07:21.835Z,100950.53
2022-11-06T05:11:23.543Z,100959.28
2022-11-06T05:15:25.532Z,100964.81
2022-11-06T05:19:27.195Z,100982.41
2022-11-06T05:23:29.155Z,100991.34
2022-11-06T05:27:30.841Z,100991.25
2022-11-06T05:31:33.030Z,100992.47
2022-11-06T05:35:34.678Z,100999.50
2022-11-06T05:39:41.427Z,101001.31
2022-11-06T05:43:43.701Z,101011.03
2022-11-06T05:47:45.647Z,101008.69
2022-11-06T05:51:47.568Z,101008.78
2022-11-06T05:55:49.612Z,101019.25
2022-11-06T05:59:51.309Z,101018.44
2022-11-06T06:03:53.307Z,101021.06
2022-11-06T06:07:55.150Z,101030.50
2022-11-06T06:11:57.105Z,101031.19
2022-11-06T06:16:01.705Z,101056.00
2022-11-06T06:20:04.196Z,101065.28
2022-11-06T06:24:06.552Z,101079.72
2022-11-06T06:28:08.442Z,101083.50
2022-11-06T06:32:10.301Z,101080.78
2022-11-06T06:36:12.294Z,101093.97
2022-11-06T06:40:13.902Z,101100.94
2022-11-06T06:44:16.564Z,101097.84
2022-11-06T06:48:18.241Z,101113.72
2022-11-06T06:52:20.162Z,101106.47
2022-11-06T06:56:22.005Z,101112.31
2022-11-06T07:00:23.988Z,101116.72
2022-11-06T07:04:25.819Z,101116.16
2022-11-06T07:08:28.459Z,101120.53
2022-11-06T07:12:30.090Z,101117.78
2022-11-06T07:16:32.572Z,101122.03
2022-11-06T07:20:35.599Z,101125.44
2022-11-06T07:24:37.619Z,101125.06
2022-11-06T07:28:39.626Z,101128.66
2022-11-06T07:32:41.776Z,101127.16
2022-11-06T07:36:43.437Z,101127.03
2022-11-06T07:40:45.363Z,101128.81
2022-11-06T07:44:47.046Z,101116.03
2022-11-06T07:48:49.955Z,101121.97
2022-11-06T07:52:51.631Z,101116.13
2022-11-06T07:56:53.746Z,101120.22
2022-11-06T08:00:57.393Z,101123.66
2022-11-06T08:04:59.394Z,101127.00
2022-11-06T08:09:05.433Z,101118.09
2022-11-06T08:13:07.470Z,101130.56
2022-11-06T08:17:09.153Z,101135.66
2022-11-06T08:21:11.111Z,101133.56
2022-11-06T08:25:12.741Z,101141.91
2022-11-06T08:29:15.042Z,101133.06
2022-11-06T08:33:16.782Z,101128.91
2022-11-06T08:37:18.751Z,101133.34
2022-11-06T08:41:20.459Z,101131.63
2022-11-06T08:45:22.459Z,101124.47
2022-11-06T08:49:24.077Z,101121.19
2022-11-06T08:53:26.070Z,101131.47
2022-11-06T08:57:28.309Z,101122.31
2022-11-06T09:01:30.935Z,101116.16
2022-11-06T09:05:32.875Z,101109.84
2022-11-06T09:09:35.137Z,101107.63
2022-11-06T09:13:36.815Z,101107.28
2022-11-06T09:17:48.653Z,101102.91
2022-11-06T09:21:54.548Z,101102.63
2022-11-06T09:25:57.826Z,101089.22
2022-11-06T09:29:59.514Z,101095.56
2022-11-06T09:34:01.492Z,101104.03
2022-11-06T09:38:10.165Z,101098.97
2022-11-06T09:42:27.389Z,101105.47
2022-11-06T09:46:33.941Z,101097.44
2022-11-06T09:50:43.136Z,101110.75
2022-11-06T09:54:56.417Z,101089.97
2022-11-06T09:59:05.481Z,101095.19
2022-11-06T10:03:16.349Z,101085.19
2022-11-06T10:07:28.898Z,101085.09
2022-11-06T10:11:51.960Z,101094.72
2022-11-06T10:16:08.053Z,101093.69
2022-11-06T10:20:23.646Z,101094.16
2022-11-06T10:24:47.397Z,101087.53
2022-11-06T10:29:29.029Z,101090.75
2022-11-06T10:33:49.591Z,101093.16
2022-11-06T10:38:16.229Z,101096.09
2022-11-06T10:42:38.270Z,101092.34
2022-11-06T10:46:46.548Z,101097.22
2022-11-06T10:51:08.871Z,101089.06
2022-11-06T10:55:41.860Z,101069.16
2022-11-06T10:59:43.858Z,101064.28
2022-11-06T11:03:47.268Z,101041.88
2022-11-06T11:07:50.512Z,101030.81
2022-11-06T11:11:52.233Z,101025.75
2022-11-06T11:15:54.273Z,101011.53
2022-11-06T11:19:55.992Z,101008.78
2022-11-06T11:24:00.900Z,101003.59
2022-11-06T11:28:04.945Z,101015.91
2022-11-06T11:32:07.544Z,101013.81
2022-11-06T11:36:10.089Z,101005.63
2022-11-06T11:40:24.327Z,101008.19
2022-11-06T11:44:25.956Z,101008.38
2022-11-06T11:48:40.387Z,100998.44
2022-11-06T11:52:44.286Z,100993.09
2022-11-06T11:57:04.056Z,100985.09
2022-11-06T12:01:08.715Z,100984.53
2022-11-06T12:05:27.019Z,100985.97
2022-11-06T12:09:32.954Z,100986.41
2022-11-06T12:13:34.883Z,100993.53
2022-11-06T12:17:40.334Z,100990.72
2022-11-06T12:21:45.963Z,100981.34
2022-11-06T12:25:58.921Z,100973.84
2022-11-06T12:30:11.713Z,100961.63
2022-11-06T12:34:37.343Z,100959.13
2022-11-06T12:39:01.850Z,100963.09
2022-11-06T12:43:56.203Z,100953.91
2022-11-06T12:48:31.722Z,100948.56
2022-11-06T12:53:00.881Z,100946.69
2022-11-06T12:57:12.819Z,100946.91
2022-11-06T13:01:33.481Z,100943.34
2022-11-06T13:05:47.011Z,100949.78
2022-11-06T13:09:58.167Z,100944.69
2022-11-06T13:14:13.905Z,100946.16
2022-11-06T13:18:25.453Z,100958.47
2022-11-06T13:22:40.696Z,100962.28
2022-11-06T13:26:47.844Z,100946.81
2022-11-06T13:30:51.426Z,100942.91
2022-11-06T13:34:56.165Z,100928.75
2022-11-06T13:39:07.604Z,100927.22
2022-11-06T13:43:23.091Z,100931.50
2022-11-06T13:47:47.562Z,100934.78
2022-11-06T13:51:57.284Z,100919.22
2022-11-06T13:56:23.726Z,100919.22
2022-11-06T14:01:02.620Z,100923.38
2022-11-06T14:05:22.922Z,100913.09
2022-11-06T14:09:27.621Z,100921.13
2022-11-06T14:13:33.501Z,100917.19
2022-11-06T14:17:35.200Z,100920.59
2022-11-06T14:21:37.109Z,100926.69
2022-11-06T14:25:41.940Z,100929.09
2022-11-06T14:29:55.879Z,100926.41
2022-11-06T14:33:59.816Z,100927.09
2022-11-06T14:38:30.796Z,100942.66
2022-11-06T14:42:36.428Z,100944.34
2022-11-06T14:46:38.399Z,100958.63
2022-11-06T14:50:41.758Z,100958.47
2022-11-06T14:54:53.827Z,100967.22
2022-11-06T14:59:20.730Z,100967.22
2022-11-06T15:03:34.767Z,100961.69
2022-11-06T15:08:03.993Z,100963.00
2022-11-06T15:12:04.161Z,100972.03
2022-11-06T15:16:11.974Z,100974.25
2022-11-06T15:20:22.927Z,100981.72
2022-11-06T15:24:28.986Z,100969.94
2022-11-06T15:28:43.935Z,100970.88
2022-11-06T15:32:49.269Z,100981.47
2022-11-06T15:36:59.783Z,100979.88
2022-11-06T15:41:02.273Z,100986.78
2022-11-06T15:45:19.001Z,100978.53
2022-11-06T15:49:22.015Z,100982.50
2022-11-06T15:53:27.828Z,100970.69
2022-11-06T15:57:30.242Z,100966.84
2022-11-06T16:01:33.898Z,100972.25
2022-11-06T16:05:37.539Z,100977.88
2022-11-06T16:09:41.752Z,100979.06
2022-11-06T16:13:46.529Z,100980.56
2022-11-06T16:17:48.538Z,100977.19
2022-11-06T16:21:57.896Z,100976.75
2022-11-06T16:26:03.618Z,100974.22
2022-11-06T16:30:07.605Z,100970.81
2022-11-06T16:34:37.638Z,100972.75
2022-11-06T16:38:44.841Z,100968.47
2022-11-06T16:43:01.507Z,100966.81
2022-11-06T16:47:15.275Z,100969.59
2022-11-06T16:51:32.667Z,100983.56
2022-11-06T16:55:35.015Z,100981.22
2022-11-06T16:59:37.451Z,100988.84
2022-11-06T17:03:49.033Z,100982.03
2022-11-06T17:08:05.194Z,100989.09
2022-11-06T17:12:10.601Z,100992.75
2022-11-06T17:16:15.152Z,100994.56
2022-11-06T17:20:19.390Z,100987.75
2022-11-06T17:24:37.791Z,100985.41
2022-11-06T17:28:40.490Z,100992.31
2022-11-06T17:32:42.497Z,100991.38
2022-11-06T17:36:44.377Z,100991.72
2022-11-06T17:40:47.318Z,101001.25
2022-11-06T17:44:49.424Z,100990.97
2022-11-06T17:48:51.020Z,100993.50
2022-11-06T17:52:52.967Z,100989.19
2022-11-06T17:56:55.884Z,100986.59
2022-11-06T18:01:08.879Z,100985.69
2022-11-06T18:05:10.713Z,100972.97
2022-11-06T18:09:14.564Z,100967.91
2022-11-06T18:13:16.226Z,100970.75
2022-11-06T18:17:18.174Z,100957.78
2022-11-06T18:21:20.477Z,100960.47
2022-11-06T18:25:22.383Z,100972.75
2022-11-06T18:29:24.152Z,100969.97
2022-11-06T18:33:27.522Z,100963.34
2022-11-06T18:37:29.203Z,100969.47
2022-11-06T18:41:31.993Z,100970.28
2022-11-06T18:45:36.790Z,100973.75
2022-11-06T18:49:38.703Z,100969.63
2022-11-06T18:53:41.710Z,100971.38
2022-11-06T18:57:43.621Z,100957.72
2022-11-06T19:01:45.985Z,100961.50
2022-11-06T19:05:50.952Z,100946.09
2022-11-06T19:09:52.888Z,100944.44
2022-11-06T19:13:54.878Z,100938.44
2022-11-06T19:17:56.604Z,100942.09
2022-11-06T19:21:58.671Z,100947.28
2022-11-06T19:26:10.672Z,100942.34
2022-11-06T19:30:22.360Z,100949.94
2022-11-06T19:34:25.574Z,100953.56
2022-11-06T19:38:28.198Z,100941.69
2022-11-06T19:42:29.875Z,100939.84
2022-11-06T19:46:35.993Z,100933.09
2022-11-06T19:50:58.720Z,100922.69
2022-11-06T19:55:26.337Z,100911.50
2022-11-06T19:59:23.543Z,100906.19
2022-11-06T20:03:25.492Z,100912.03
2022-11-06T20:07:27.115Z,100928.22
2022-11-06T20:11:29.029Z,100923.75
2022-11-06T20:15:31.369Z,100933.13
2022-11-06T20:19:33.341Z,100938.44
2022-11-06T20:23:35.827Z,100938.59
2022-11-06T20:27:37.916Z,100930.16
2022-11-06T20:31:39.581Z,100938.88
2022-11-06T20:35:41.778Z,100933.81
2022-11-06T20:39:43.737Z,100933.97
2022-11-06T20:43:46.226Z,100929.75
2022-11-06T20:47:48.196Z,100920.31
2022-11-06T20:52:12.652Z,100918.53
2022-11-06T20:56:14.647Z,100927.31
2022-11-06T21:00:17.048Z,100920.41
2022-11-06T21:04:18.801Z,100923.16
2022-11-06T21:08:20.804Z,100923.91
2022-11-06T21:12:23.193Z,100924.06
2022-11-06T21:16:28.552Z,100917.22
2022-11-06T21:20:30.270Z,100913.09
2022-11-06T21:24:32.171Z,100915.69
2022-11-06T21:28:34.003Z,100908.00
2022-11-06T21:32:35.930Z,100897.75
2022-11-06T21:36:37.949Z,100888.38
2022-11-06T21:40:40.519Z,100877.19
2022-11-06T21:44:42.218Z,100883.03
2022-11-06T21:48:46.824Z,100884.66
2022-11-06T21:53:08.017Z,100886.16
2022-11-06T21:57:10.006Z,100884.31
2022-11-06T22:01:11.770Z,100882.59
2022-11-06T22:05:13.733Z,100877.38
2022-11-06T22:09:18.375Z,100882.53
2022-11-06T22:13:22.728Z,100879.97
2022-11-06T22:17:24.407Z,100876.59
2022-11-06T22:21:28.553Z,100874.03
2022-11-06T22:25:30.494Z,100878.34
2022-11-06T22:29:32.473Z,100878.28
2022-11-06T22:33:34.787Z,100881.38
2022-11-06T22:37:36.732Z,100878.88
2022-11-06T22:41:39.284Z,100871.19
2022-11-06T22:45:41.551Z,100866.09
2022-11-06T22:49:43.261Z,100862.84
2022-11-06T22:53:45.291Z,100855.41
2022-11-06T22:57:47.032Z,100856.25
2022-11-06T23:01:49.068Z,100858.94
2022-11-06T23:05:51.297Z,100856.63
2022-11-06T23:09:53.172Z,100845.50
2022-11-06T23:13:55.253Z,100853.34
2022-11-06T23:17:57.270Z,100856.84
2022-11-06T23:22:17.861Z,100853.41
2022-11-06T23:26:19.854Z,100850.91
2022-11-06T23:30:21.726Z,100850.88
2022-11-06T23:34:23.645Z,100846.53
2022-11-06T23:38:25.523Z,100861.19
2022-11-06T23:42:27.834Z,100863.75
2022-11-06T23:46:33.647Z,100855.03
2022-11-06T23:50:35.533Z,100854.22
2022-11-06T23:54:37.204Z,100858.66
2022-11-06T23:58:40.106Z,100853.44
